sensor_id;sensor_type;location;lat;lon;timestamp;pressure;altitude;pressure_sealevel;temperature;humidity
54144;BME280;40050;47.324;18.792;2024-03-08T00:01:41;1007.20;;;8.48;70.47
54144;BME280;40050;47.324;18.792;2024-03-08T00:03:42;1007.19;;;8.48;70.26
54144;BME280;40050;47.324;18.792;2024-03-08T00:05:43;1007.22;;;8.47;70.16
54144;BME280;40050;47.324;18.792;2024-03-08T00:07:44;1007.17;;;8.47;70.32
54144;BME280;40050;47.324;18.792;2024-03-08T00:09:45;1007.19;;;8.47;70.38
54144;BME280;40050;47.324;18.792;2024-03-08T00:11:45;1007.17;;;8.48;70.36
54144;BME280;40050;47.324;18.792;2024-03-08T00:13:46;1007.17;;;8.49;70.33
54144;BME280;40050;47.324;18.792;2024-03-08T00:15:47;1007.17;;;8.51;70.25
54144;BME280;40050;47.324;18.792;2024-03-08T00:17:48;1007.18;;;8.50;70.22
54144;BME280;40050;47.324;18.792;2024-03-08T00:19:49;1007.27;;;8.50;70.27
54144;BME280;40050;47.324;18.792;2024-03-08T00:21:50;1007.24;;;8.51;70.27
54144;BME280;40050;47.324;18.792;2024-03-08T00:23:51;1007.25;;;8.53;70.25
54144;BME280;40050;47.324;18.792;2024-03-08T00:25:52;1007.19;;;8.50;70.33
54144;BME280;40050;47.324;18.792;2024-03-08T00:27:53;1007.21;;;8.53;70.26
54144;BME280;40050;47.324;18.792;2024-03-08T00:29:54;1007.17;;;8.52;70.01
54144;BME280;40050;47.324;18.792;2024-03-08T00:31:55;1007.21;;;8.53;70.02
54144;BME280;40050;47.324;18.792;2024-03-08T00:33:56;1007.20;;;8.50;70.27
54144;BME280;40050;47.324;18.792;2024-03-08T00:35:57;1007.15;;;8.49;70.33
54144;BME280;40050;47.324;18.792;2024-03-08T00:37:58;1007.19;;;8.52;70.41
54144;BME280;40050;47.324;18.792;2024-03-08T00:39:59;1007.14;;;8.49;70.46
54144;BME280;40050;47.324;18.792;2024-03-08T00:41:59;1007.15;;;8.49;70.38
54144;BME280;40050;47.324;18.792;2024-03-08T00:44:00;1007.14;;;8.48;70.11
54144;BME280;40050;47.324;18.792;2024-03-08T00:46:01;1007.19;;;8.46;70.25
54144;BME280;40050;47.324;18.792;2024-03-08T00:48:03;1007.18;;;8.44;70.35
54144;BME280;40050;47.324;18.792;2024-03-08T00:50:04;1007.08;;;8.41;70.39
54144;BME280;40050;47.324;18.792;2024-03-08T00:52:05;1007.08;;;8.39;70.55
54144;BME280;40050;47.324;18.792;2024-03-08T00:54:06;1007.08;;;8.38;70.81
54144;BME280;40050;47.324;18.792;2024-03-08T00:56:10;1007.07;;;8.39;70.94
54144;BME280;40050;47.324;18.792;2024-03-08T00:58:10;1007.09;;;8.42;70.88
54144;BME280;40050;47.324;18.792;2024-03-08T01:00:12;1007.04;;;8.42;70.85
54144;BME280;40050;47.324;18.792;2024-03-08T01:02:13;1007.02;;;8.47;70.84
54144;BME280;40050;47.324;18.792;2024-03-08T01:04:13;1007.07;;;8.48;70.83
54144;BME280;40050;47.324;18.792;2024-03-08T01:06:14;1007.03;;;8.48;70.78
54144;BME280;40050;47.324;18.792;2024-03-08T01:08:15;1007.01;;;8.49;70.79
54144;BME280;40050;47.324;18.792;2024-03-08T01:10:16;1007.03;;;8.49;70.78
54144;BME280;40050;47.324;18.792;2024-03-08T01:12:17;1007.00;;;8.46;70.75
54144;BME280;40050;47.324;18.792;2024-03-08T01:14:18;1006.97;;;8.42;70.86
54144;BME280;40050;47.324;18.792;2024-03-08T01:16:19;1006.99;;;8.42;70.96
54144;BME280;40050;47.324;18.792;2024-03-08T01:18:20;1006.98;;;8.42;71.11
54144;BME280;40050;47.324;18.792;2024-03-08T01:20:21;1007.00;;;8.42;71.16
54144;BME280;40050;47.324;18.792;2024-03-08T01:22:22;1007.04;;;8.48;71.13
54144;BME280;40050;47.324;18.792;2024-03-08T01:24:23;1007.02;;;8.48;71.06
54144;BME280;40050;47.324;18.792;2024-03-08T01:26:23;1007.05;;;8.47;71.20
54144;BME280;40050;47.324;18.792;2024-03-08T01:28:25;1007.00;;;8.46;71.29
54144;BME280;40050;47.324;18.792;2024-03-08T01:30:26;1006.99;;;8.46;71.39
54144;BME280;40050;47.324;18.792;2024-03-08T01:32:27;1007.00;;;8.48;71.33
54144;BME280;40050;47.324;18.792;2024-03-08T01:34:28;1006.94;;;8.45;71.35
54144;BME280;40050;47.324;18.792;2024-03-08T01:36:29;1006.93;;;8.46;71.46
54144;BME280;40050;47.324;18.792;2024-03-08T01:38:30;1006.99;;;8.51;71.69
54144;BME280;40050;47.324;18.792;2024-03-08T01:40:30;1007.03;;;8.52;71.80
54144;BME280;40050;47.324;18.792;2024-03-08T01:42:31;1006.98;;;8.51;71.76
54144;BME280;40050;47.324;18.792;2024-03-08T01:44:32;1007.01;;;8.55;71.69
54144;BME280;40050;47.324;18.792;2024-03-08T01:46:33;1006.98;;;8.58;71.64
54144;BME280;40050;47.324;18.792;2024-03-08T01:48:35;1006.95;;;8.60;71.50
54144;BME280;40050;47.324;18.792;2024-03-08T01:50:37;1006.90;;;8.60;71.32
54144;BME280;40050;47.324;18.792;2024-03-08T01:52:38;1006.89;;;8.59;71.22
54144;BME280;40050;47.324;18.792;2024-03-08T01:54:39;1006.86;;;8.58;71.30
54144;BME280;40050;47.324;18.792;2024-03-08T01:56:40;1006.93;;;8.61;71.25
54144;BME280;40050;47.324;18.792;2024-03-08T01:58:41;1006.88;;;8.58;71.23
54144;BME280;40050;47.324;18.792;2024-03-08T02:00:46;1006.91;;;8.60;71.29
54144;BME280;40050;47.324;18.792;2024-03-08T02:02:47;1006.87;;;8.58;71.43
54144;BME280;40050;47.324;18.792;2024-03-08T02:04:50;1006.90;;;8.62;71.49
54144;BME280;40050;47.324;18.792;2024-03-08T02:06:51;1006.91;;;8.63;71.45
54144;BME280;40050;47.324;18.792;2024-03-08T02:08:51;1006.83;;;8.61;71.37
54144;BME280;40050;47.324;18.792;2024-03-08T02:10:52;1006.85;;;8.61;71.28
54144;BME280;40050;47.324;18.792;2024-03-08T02:12:53;1006.84;;;8.60;71.34
54144;BME280;40050;47.324;18.792;2024-03-08T02:14:54;1006.79;;;8.57;71.46
54144;BME280;40050;47.324;18.792;2024-03-08T02:16:55;1006.90;;;8.63;71.37
54144;BME280;40050;47.324;18.792;2024-03-08T02:18:56;1006.93;;;8.63;71.35
54144;BME280;40050;47.324;18.792;2024-03-08T02:21:00;1006.90;;;8.64;71.39
54144;BME280;40050;47.324;18.792;2024-03-08T02:23:01;1006.90;;;8.63;71.31
54144;BME280;40050;47.324;18.792;2024-03-08T02:25:02;1006.89;;;8.62;71.23
54144;BME280;40050;47.324;18.792;2024-03-08T02:27:03;1006.85;;;8.60;71.19
54144;BME280;40050;47.324;18.792;2024-03-08T02:29:04;1006.89;;;8.61;71.33
54144;BME280;40050;47.324;18.792;2024-03-08T02:31:05;1006.83;;;8.57;71.38
54144;BME280;40050;47.324;18.792;2024-03-08T02:33:07;1006.96;;;8.60;71.46
54144;BME280;40050;47.324;18.792;2024-03-08T02:35:08;1006.96;;;8.61;71.46
54144;BME280;40050;47.324;18.792;2024-03-08T02:37:09;1006.94;;;8.60;71.54
54144;BME280;40050;47.324;18.792;2024-03-08T02:39:10;1006.94;;;8.61;71.38
54144;BME280;40050;47.324;18.792;2024-03-08T02:41:11;1006.93;;;8.61;71.36
54144;BME280;40050;47.324;18.792;2024-03-08T02:43:12;1006.94;;;8.60;71.30
54144;BME280;40050;47.324;18.792;2024-03-08T02:45:13;1006.87;;;8.58;71.22
54144;BME280;40050;47.324;18.792;2024-03-08T02:47:14;1006.82;;;8.59;71.33
54144;BME280;40050;47.324;18.792;2024-03-08T02:49:15;1006.84;;;8.62;71.38
54144;BME280;40050;47.324;18.792;2024-03-08T02:51:16;1006.82;;;8.61;71.35
54144;BME280;40050;47.324;18.792;2024-03-08T02:53:17;1006.85;;;8.61;71.38
54144;BME280;40050;47.324;18.792;2024-03-08T02:55:18;1006.80;;;8.60;71.19
54144;BME280;40050;47.324;18.792;2024-03-08T02:57:18;1006.83;;;8.60;71.10
54144;BME280;40050;47.324;18.792;2024-03-08T02:59:19;1006.91;;;8.64;70.91
54144;BME280;40050;47.324;18.792;2024-03-08T03:01:20;1006.89;;;8.64;70.88
54144;BME280;40050;47.324;18.792;2024-03-08T03:03:21;1006.90;;;8.63;70.78
54144;BME280;40050;47.324;18.792;2024-03-08T03:05:23;1006.91;;;8.62;70.82
54144;BME280;40050;47.324;18.792;2024-03-08T03:07:24;1006.94;;;8.57;70.79
54144;BME280;40050;47.324;18.792;2024-03-08T03:09:25;1006.89;;;8.55;70.53
54144;BME280;40050;47.324;18.792;2024-03-08T03:11:25;1006.92;;;8.54;70.44
54144;BME280;40050;47.324;18.792;2024-03-08T03:13:26;1006.98;;;8.55;70.46
54144;BME280;40050;47.324;18.792;2024-03-08T03:15:27;1006.98;;;8.56;70.56
54144;BME280;40050;47.324;18.792;2024-03-08T03:17:28;1007.00;;;8.55;70.58
54144;BME280;40050;47.324;18.792;2024-03-08T03:19:29;1007.05;;;8.57;70.64
54144;BME280;40050;47.324;18.792;2024-03-08T03:21:30;1007.07;;;8.55;70.52
54144;BME280;40050;47.324;18.792;2024-03-08T03:23:31;1007.01;;;8.55;70.56
54144;BME280;40050;47.324;18.792;2024-03-08T03:25:32;1007.11;;;8.56;70.68
54144;BME280;40050;47.324;18.792;2024-03-08T03:27:33;1007.02;;;8.55;70.64
54144;BME280;40050;47.324;18.792;2024-03-08T03:29:34;1007.03;;;8.58;70.54
54144;BME280;40050;47.324;18.792;2024-03-08T03:31:35;1007.05;;;8.58;70.61
54144;BME280;40050;47.324;18.792;2024-03-08T03:33:36;1007.01;;;8.56;70.67
54144;BME280;40050;47.324;18.792;2024-03-08T03:35:36;1007.05;;;8.59;70.70
54144;BME280;40050;47.324;18.792;2024-03-08T03:37:37;1007.08;;;8.60;70.55
54144;BME280;40050;47.324;18.792;2024-03-08T03:39:39;1007.00;;;8.54;70.63
54144;BME280;40050;47.324;18.792;2024-03-08T03:41:40;1007.05;;;8.57;70.69
54144;BME280;40050;47.324;18.792;2024-03-08T03:43:41;1007.03;;;8.54;70.72
54144;BME280;40050;47.324;18.792;2024-03-08T03:45:41;1007.03;;;8.57;70.65
54144;BME280;40050;47.324;18.792;2024-03-08T03:47:42;1007.06;;;8.57;70.52
54144;BME280;40050;47.324;18.792;2024-03-08T03:49:43;1006.97;;;8.53;70.37
54144;BME280;40050;47.324;18.792;2024-03-08T03:51:44;1007.03;;;8.55;70.40
54144;BME280;40050;47.324;18.792;2024-03-08T03:53:45;1007.02;;;8.56;70.39
54144;BME280;40050;47.324;18.792;2024-03-08T03:55:46;1006.96;;;8.52;70.33
54144;BME280;40050;47.324;18.792;2024-03-08T03:57:47;1007.02;;;8.54;70.11
54144;BME280;40050;47.324;18.792;2024-03-08T03:59:48;1006.98;;;8.52;70.26
54144;BME280;40050;47.324;18.792;2024-03-08T04:01:49;1007.02;;;8.53;70.18
54144;BME280;40050;47.324;18.792;2024-03-08T04:03:50;1006.99;;;8.52;70.25
54144;BME280;40050;47.324;18.792;2024-03-08T04:05:51;1007.03;;;8.52;70.16
54144;BME280;40050;47.324;18.792;2024-03-08T04:07:52;1007.07;;;8.51;70.08
54144;BME280;40050;47.324;18.792;2024-03-08T04:09:53;1007.08;;;8.50;69.93
54144;BME280;40050;47.324;18.792;2024-03-08T04:11:53;1007.05;;;8.49;69.87
54144;BME280;40050;47.324;18.792;2024-03-08T04:13:54;1007.07;;;8.48;69.59
54144;BME280;40050;47.324;18.792;2024-03-08T04:15:55;1007.09;;;8.45;69.84
54144;BME280;40050;47.324;18.792;2024-03-08T04:17:56;1007.05;;;8.42;69.84
54144;BME280;40050;47.324;18.792;2024-03-08T04:19:57;1007.07;;;8.40;69.75
54144;BME280;40050;47.324;18.792;2024-03-08T04:21:58;1007.09;;;8.38;69.76
54144;BME280;40050;47.324;18.792;2024-03-08T04:23:59;1007.11;;;8.39;69.86
54144;BME280;40050;47.324;18.792;2024-03-08T04:26:00;1007.10;;;8.32;69.82
54144;BME280;40050;47.324;18.792;2024-03-08T04:28:01;1007.14;;;8.29;69.96
54144;BME280;40050;47.324;18.792;2024-03-08T04:30:02;1007.08;;;8.27;70.11
54144;BME280;40050;47.324;18.792;2024-03-08T04:32:03;1007.13;;;8.30;69.95
54144;BME280;40050;47.324;18.792;2024-03-08T04:34:05;1007.11;;;8.25;70.08
54144;BME280;40050;47.324;18.792;2024-03-08T04:36:06;1007.14;;;8.24;70.09
54144;BME280;40050;47.324;18.792;2024-03-08T04:38:07;1007.17;;;8.27;70.23
54144;BME280;40050;47.324;18.792;2024-03-08T04:40:08;1007.12;;;8.22;70.13
54144;BME280;40050;47.324;18.792;2024-03-08T04:42:09;1007.15;;;8.24;70.22
54144;BME280;40050;47.324;18.792;2024-03-08T04:44:10;1007.11;;;8.22;70.28
54144;BME280;40050;47.324;18.792;2024-03-08T04:46:11;1007.16;;;8.27;70.51
54144;BME280;40050;47.324;18.792;2024-03-08T04:48:12;1007.17;;;8.29;70.25
54144;BME280;40050;47.324;18.792;2024-03-08T04:50:13;1007.17;;;8.24;70.30
54144;BME280;40050;47.324;18.792;2024-03-08T04:52:14;1007.23;;;8.25;70.34
54144;BME280;40050;47.324;18.792;2024-03-08T04:54:15;1007.17;;;8.23;70.51
54144;BME280;40050;47.324;18.792;2024-03-08T04:56:16;1007.18;;;8.26;70.66
54144;BME280;40050;47.324;18.792;2024-03-08T04:58:17;1007.24;;;8.28;70.93
54144;BME280;40050;47.324;18.792;2024-03-08T05:00:18;1007.13;;;8.25;70.88
54144;BME280;40050;47.324;18.792;2024-03-08T05:02:19;1007.21;;;8.28;70.74
54144;BME280;40050;47.324;18.792;2024-03-08T05:04:20;1007.22;;;8.30;70.66
54144;BME280;40050;47.324;18.792;2024-03-08T05:06:21;1007.21;;;8.31;70.62
54144;BME280;40050;47.324;18.792;2024-03-08T05:08:22;1007.20;;;8.32;70.62
54144;BME280;40050;47.324;18.792;2024-03-08T05:10:22;1007.14;;;8.28;70.60
54144;BME280;40050;47.324;18.792;2024-03-08T05:12:23;1007.20;;;8.33;70.77
54144;BME280;40050;47.324;18.792;2024-03-08T05:14:24;1007.17;;;8.30;70.67
54144;BME280;40050;47.324;18.792;2024-03-08T05:16:25;1007.19;;;8.33;70.62
54144;BME280;40050;47.324;18.792;2024-03-08T05:18:26;1007.13;;;8.30;70.65
54144;BME280;40050;47.324;18.792;2024-03-08T05:20:27;1007.24;;;8.31;70.61
54144;BME280;40050;47.324;18.792;2024-03-08T05:22:28;1007.20;;;8.32;70.69
54144;BME280;40050;47.324;18.792;2024-03-08T05:24:29;1007.20;;;8.30;70.62
54144;BME280;40050;47.324;18.792;2024-03-08T05:26:30;1007.23;;;8.30;70.60
54144;BME280;40050;47.324;18.792;2024-03-08T05:28:30;1007.23;;;8.26;70.48
54144;BME280;40050;47.324;18.792;2024-03-08T05:30:31;1007.28;;;8.29;70.46
54144;BME280;40050;47.324;18.792;2024-03-08T05:32:32;1007.23;;;8.25;70.53
54144;BME280;40050;47.324;18.792;2024-03-08T05:34:33;1007.27;;;8.26;70.59
54144;BME280;40050;47.324;18.792;2024-03-08T05:36:34;1007.34;;;8.25;70.59
54144;BME280;40050;47.324;18.792;2024-03-08T05:38:35;1007.35;;;8.25;70.64
54144;BME280;40050;47.324;18.792;2024-03-08T05:40:36;1007.31;;;8.25;70.66
54144;BME280;40050;47.324;18.792;2024-03-08T05:42:37;1007.34;;;8.25;70.53
54144;BME280;40050;47.324;18.792;2024-03-08T05:44:38;1007.35;;;8.24;70.49
54144;BME280;40050;47.324;18.792;2024-03-08T05:46:39;1007.36;;;8.23;70.47
54144;BME280;40050;47.324;18.792;2024-03-08T05:48:40;1007.37;;;8.23;70.59
54144;BME280;40050;47.324;18.792;2024-03-08T05:50:41;1007.40;;;8.22;70.60
54144;BME280;40050;47.324;18.792;2024-03-08T05:52:44;1007.38;;;8.22;70.90
54144;BME280;40050;47.324;18.792;2024-03-08T05:54:45;1007.43;;;8.26;71.07
54144;BME280;40050;47.324;18.792;2024-03-08T05:56:46;1007.44;;;8.27;71.01
54144;BME280;40050;47.324;18.792;2024-03-08T05:58:46;1007.44;;;8.25;70.81
54144;BME280;40050;47.324;18.792;2024-03-08T06:00:47;1007.47;;;8.26;70.69
54144;BME280;40050;47.324;18.792;2024-03-08T06:02:48;1007.50;;;8.26;70.76
54144;BME280;40050;47.324;18.792;2024-03-08T06:04:49;1007.48;;;8.27;70.85
54144;BME280;40050;47.324;18.792;2024-03-08T06:06:50;1007.49;;;8.28;70.76
54144;BME280;40050;47.324;18.792;2024-03-08T06:08:51;1007.47;;;8.30;70.87
54144;BME280;40050;47.324;18.792;2024-03-08T06:10:52;1007.47;;;8.34;71.47
54144;BME280;40050;47.324;18.792;2024-03-08T06:12:53;1007.49;;;8.34;70.93
54144;BME280;40050;47.324;18.792;2024-03-08T06:14:54;1007.52;;;8.31;70.83
54144;BME280;40050;47.324;18.792;2024-03-08T06:16:55;1007.51;;;8.31;70.70
54144;BME280;40050;47.324;18.792;2024-03-08T06:18:56;1007.57;;;8.38;72.01
54144;BME280;40050;47.324;18.792;2024-03-08T06:20:57;1007.62;;;8.38;71.24
54144;BME280;40050;47.324;18.792;2024-03-08T06:22:58;1007.63;;;8.43;70.64
54144;BME280;40050;47.324;18.792;2024-03-08T06:24:59;1007.62;;;8.37;70.68
54144;BME280;40050;47.324;18.792;2024-03-08T06:26:59;1007.65;;;8.37;70.88
54144;BME280;40050;47.324;18.792;2024-03-08T06:29:00;1007.65;;;8.38;70.87
54144;BME280;40050;47.324;18.792;2024-03-08T06:31:02;1007.67;;;8.40;70.75
54144;BME280;40050;47.324;18.792;2024-03-08T06:33:03;1007.68;;;8.42;71.38
54144;BME280;40050;47.324;18.792;2024-03-08T06:35:07;1007.65;;;8.41;71.07
54144;BME280;40050;47.324;18.792;2024-03-08T06:37:08;1007.66;;;8.38;70.98
54144;BME280;40050;47.324;18.792;2024-03-08T06:39:09;1007.63;;;8.34;70.92
54144;BME280;40050;47.324;18.792;2024-03-08T06:41:09;1007.67;;;8.34;71.13
54144;BME280;40050;47.324;18.792;2024-03-08T06:43:10;1007.70;;;8.39;71.27
54144;BME280;40050;47.324;18.792;2024-03-08T06:45:11;1007.68;;;8.40;71.28
54144;BME280;40050;47.324;18.792;2024-03-08T06:47:12;1007.71;;;8.43;71.20
54144;BME280;40050;47.324;18.792;2024-03-08T06:49:13;1007.74;;;8.44;71.08
54144;BME280;40050;47.324;18.792;2024-03-08T06:51:14;1007.74;;;8.46;70.91
54144;BME280;40050;47.324;18.792;2024-03-08T06:53:15;1007.77;;;8.48;71.07
54144;BME280;40050;47.324;18.792;2024-03-08T06:55:16;1007.84;;;8.48;71.11
54144;BME280;40050;47.324;18.792;2024-03-08T06:57:17;1007.83;;;8.45;71.10
54144;BME280;40050;47.324;18.792;2024-03-08T06:59:18;1007.82;;;8.47;71.21
54144;BME280;40050;47.324;18.792;2024-03-08T07:01:19;1007.83;;;8.53;71.17
54144;BME280;40050;47.324;18.792;2024-03-08T07:03:20;1007.83;;;8.54;70.87
54144;BME280;40050;47.324;18.792;2024-03-08T07:05:21;1007.82;;;8.52;71.48
54144;BME280;40050;47.324;18.792;2024-03-08T07:07:22;1007.81;;;8.55;71.78
54144;BME280;40050;47.324;18.792;2024-03-08T07:09:25;1007.83;;;8.58;71.61
54144;BME280;40050;47.324;18.792;2024-03-08T07:11:26;1007.80;;;8.60;71.56
54144;BME280;40050;47.324;18.792;2024-03-08T07:13:27;1007.80;;;8.60;71.49
54144;BME280;40050;47.324;18.792;2024-03-08T07:15:28;1007.87;;;8.65;71.29
54144;BME280;40050;47.324;18.792;2024-03-08T07:17:29;1007.82;;;8.58;71.42
54144;BME280;40050;47.324;18.792;2024-03-08T07:19:30;1007.81;;;8.70;71.34
54144;BME280;40050;47.324;18.792;2024-03-08T07:21:31;1007.83;;;8.72;71.38
54144;BME280;40050;47.324;18.792;2024-03-08T07:23:32;1007.85;;;8.73;71.17
54144;BME280;40050;47.324;18.792;2024-03-08T07:25:33;1007.83;;;8.72;71.08
54144;BME280;40050;47.324;18.792;2024-03-08T07:27:34;1007.86;;;8.72;70.64
54144;BME280;40050;47.324;18.792;2024-03-08T07:29:35;1007.90;;;8.73;70.68
54144;BME280;40050;47.324;18.792;2024-03-08T07:31:35;1007.91;;;8.75;70.66
54144;BME280;40050;47.324;18.792;2024-03-08T07:33:36;1007.89;;;8.76;70.68
54144;BME280;40050;47.324;18.792;2024-03-08T07:35:37;1007.86;;;8.78;70.39
54144;BME280;40050;47.324;18.792;2024-03-08T07:37:38;1007.92;;;8.78;70.49
54144;BME280;40050;47.324;18.792;2024-03-08T07:39:39;1007.91;;;8.79;70.56
54144;BME280;40050;47.324;18.792;2024-03-08T07:41:40;1007.89;;;8.78;70.52
54144;BME280;40050;47.324;18.792;2024-03-08T07:43:41;1007.90;;;8.79;70.51
54144;BME280;40050;47.324;18.792;2024-03-08T07:45:42;1007.81;;;8.77;70.53
54144;BME280;40050;47.324;18.792;2024-03-08T07:47:43;1007.94;;;8.85;70.70
54144;BME280;40050;47.324;18.792;2024-03-08T07:49:44;1007.91;;;8.87;70.81
54144;BME280;40050;47.324;18.792;2024-03-08T07:51:45;1007.93;;;8.85;70.68
54144;BME280;40050;47.324;18.792;2024-03-08T07:53:46;1007.88;;;8.81;70.67
54144;BME280;40050;47.324;18.792;2024-03-08T07:55:47;1007.93;;;8.88;70.27
54144;BME280;40050;47.324;18.792;2024-03-08T07:57:47;1007.96;;;8.85;70.63
54144;BME280;40050;47.324;18.792;2024-03-08T07:59:48;1007.93;;;8.90;70.51
54144;BME280;40050;47.324;18.792;2024-03-08T08:01:49;1007.90;;;8.91;70.64
54144;BME280;40050;47.324;18.792;2024-03-08T08:03:50;1007.90;;;8.97;70.47
54144;BME280;40050;47.324;18.792;2024-03-08T08:05:51;1007.92;;;8.95;70.61
54144;BME280;40050;47.324;18.792;2024-03-08T08:07:52;1007.85;;;8.94;70.54
54144;BME280;40050;47.324;18.792;2024-03-08T08:09:53;1007.85;;;8.98;70.32
54144;BME280;40050;47.324;18.792;2024-03-08T08:11:54;1007.88;;;9.01;70.39
54144;BME280;40050;47.324;18.792;2024-03-08T08:13:55;1007.85;;;9.04;69.99
54144;BME280;40050;47.324;18.792;2024-03-08T08:15:56;1007.89;;;9.04;70.05
54144;BME280;40050;47.324;18.792;2024-03-08T08:17:57;1007.88;;;9.02;69.90
54144;BME280;40050;47.324;18.792;2024-03-08T08:19:58;1007.89;;;8.99;70.26
54144;BME280;40050;47.324;18.792;2024-03-08T08:21:59;1007.90;;;8.96;70.41
54144;BME280;40050;47.324;18.792;2024-03-08T08:24:00;1007.88;;;8.95;70.55
54144;BME280;40050;47.324;18.792;2024-03-08T08:26:01;1007.93;;;9.00;70.55
54144;BME280;40050;47.324;18.792;2024-03-08T08:28:02;1007.95;;;8.99;70.51
54144;BME280;40050;47.324;18.792;2024-03-08T08:30:03;1007.93;;;8.96;70.31
54144;BME280;40050;47.324;18.792;2024-03-08T08:32:04;1007.96;;;8.90;70.50
54144;BME280;40050;47.324;18.792;2024-03-08T08:34:05;1007.89;;;8.89;70.74
54144;BME280;40050;47.324;18.792;2024-03-08T08:36:06;1007.94;;;8.88;70.88
54144;BME280;40050;47.324;18.792;2024-03-08T08:38:07;1007.87;;;8.85;71.15
54144;BME280;40050;47.324;18.792;2024-03-08T08:40:08;1007.89;;;8.83;71.26
54144;BME280;40050;47.324;18.792;2024-03-08T08:42:09;1007.93;;;8.89;71.36
54144;BME280;40050;47.324;18.792;2024-03-08T08:44:10;1007.95;;;8.89;71.21
54144;BME280;40050;47.324;18.792;2024-03-08T08:46:10;1007.89;;;8.90;71.04
54144;BME280;40050;47.324;18.792;2024-03-08T08:48:11;1007.92;;;8.93;71.32
54144;BME280;40050;47.324;18.792;2024-03-08T08:50:12;1007.90;;;8.90;71.27
54144;BME280;40050;47.324;18.792;2024-03-08T08:52:13;1007.93;;;8.90;71.36
54144;BME280;40050;47.324;18.792;2024-03-08T08:54:14;1007.86;;;8.93;71.38
54144;BME280;40050;47.324;18.792;2024-03-08T08:56:15;1007.97;;;8.99;71.09
54144;BME280;40050;47.324;18.792;2024-03-08T08:58:16;1007.96;;;8.94;71.61
54144;BME280;40050;47.324;18.792;2024-03-08T09:00:17;1007.90;;;8.94;71.45
54144;BME280;40050;47.324;18.792;2024-03-08T09:02:18;1007.98;;;8.98;71.65
54144;BME280;40050;47.324;18.792;2024-03-08T09:04:19;1007.95;;;9.01;71.64
54144;BME280;40050;47.324;18.792;2024-03-08T09:06:20;1007.92;;;9.00;71.87
54144;BME280;40050;47.324;18.792;2024-03-08T09:08:21;1007.94;;;9.08;71.67
54144;BME280;40050;47.324;18.792;2024-03-08T09:10:22;1007.88;;;9.10;71.84
54144;BME280;40050;47.324;18.792;2024-03-08T09:12:23;1007.91;;;9.14;71.12
54144;BME280;40050;47.324;18.792;2024-03-08T09:14:24;1007.87;;;9.11;71.05
54144;BME280;40050;47.324;18.792;2024-03-08T09:16:25;1007.88;;;9.13;71.44
54144;BME280;40050;47.324;18.792;2024-03-08T09:18:26;1007.91;;;9.15;71.83
54144;BME280;40050;47.324;18.792;2024-03-08T09:20:27;1007.87;;;9.15;72.17
54144;BME280;40050;47.324;18.792;2024-03-08T09:22:28;1007.82;;;9.20;71.88
54144;BME280;40050;47.324;18.792;2024-03-08T09:24:28;1007.88;;;9.24;71.56
54144;BME280;40050;47.324;18.792;2024-03-08T09:26:29;1007.88;;;9.29;71.58
54144;BME280;40050;47.324;18.792;2024-03-08T09:28:30;1007.87;;;9.29;71.69
54144;BME280;40050;47.324;18.792;2024-03-08T09:30:31;1007.83;;;9.31;71.88
54144;BME280;40050;47.324;18.792;2024-03-08T09:32:32;1007.88;;;9.38;71.69
54144;BME280;40050;47.324;18.792;2024-03-08T09:34:33;1007.87;;;9.41;71.42
54144;BME280;40050;47.324;18.792;2024-03-08T09:36:34;1007.88;;;9.40;71.43
54144;BME280;40050;47.324;18.792;2024-03-08T09:38:35;1007.91;;;9.44;71.25
54144;BME280;40050;47.324;18.792;2024-03-08T09:40:36;1007.93;;;9.41;71.20
54144;BME280;40050;47.324;18.792;2024-03-08T09:42:37;1007.92;;;9.41;71.16
54144;BME280;40050;47.324;18.792;2024-03-08T09:44:38;1007.88;;;9.33;70.98
54144;BME280;40050;47.324;18.792;2024-03-08T09:46:38;1007.89;;;9.30;71.04
54144;BME280;40050;47.324;18.792;2024-03-08T09:48:40;1007.91;;;9.35;71.03
54144;BME280;40050;47.324;18.792;2024-03-08T09:50:41;1007.94;;;9.37;71.08
54144;BME280;40050;47.324;18.792;2024-03-08T09:52:41;1007.90;;;9.42;71.05
54144;BME280;40050;47.324;18.792;2024-03-08T09:54:42;1007.84;;;9.40;70.88
54144;BME280;40050;47.324;18.792;2024-03-08T09:56:43;1007.90;;;9.41;71.02
54144;BME280;40050;47.324;18.792;2024-03-08T09:58:45;1007.91;;;9.41;70.96
54144;BME280;40050;47.324;18.792;2024-03-08T10:00:46;1007.94;;;9.43;70.93
54144;BME280;40050;47.324;18.792;2024-03-08T10:02:47;1007.91;;;9.51;70.54
54144;BME280;40050;47.324;18.792;2024-03-08T10:04:48;1007.95;;;9.51;70.95
54144;BME280;40050;47.324;18.792;2024-03-08T10:06:49;1007.95;;;9.56;70.86
54144;BME280;40050;47.324;18.792;2024-03-08T10:08:50;1007.99;;;9.55;70.70
54144;BME280;40050;47.324;18.792;2024-03-08T10:10:51;1007.91;;;9.54;70.55
54144;BME280;40050;47.324;18.792;2024-03-08T10:12:52;1007.97;;;9.55;70.59
54144;BME280;40050;47.324;18.792;2024-03-08T10:15:00;1007.92;;;9.55;70.72
54144;BME280;40050;47.324;18.792;2024-03-08T10:17:01;1007.98;;;9.60;70.60
54144;BME280;40050;47.324;18.792;2024-03-08T10:19:02;1007.91;;;9.57;70.65
54144;BME280;40050;47.324;18.792;2024-03-08T10:21:03;1007.92;;;9.59;70.68
54144;BME280;40050;47.324;18.792;2024-03-08T10:23:05;1007.94;;;9.59;70.83
54144;BME280;40050;47.324;18.792;2024-03-08T10:25:06;1007.95;;;9.61;70.95
54144;BME280;40050;47.324;18.792;2024-03-08T10:27:07;1007.95;;;9.64;70.96
54144;BME280;40050;47.324;18.792;2024-03-08T10:29:08;1007.92;;;9.67;70.92
54144;BME280;40050;47.324;18.792;2024-03-08T10:31:09;1007.92;;;9.71;70.83
54144;BME280;40050;47.324;18.792;2024-03-08T10:33:10;1007.93;;;9.76;70.83
54144;BME280;40050;47.324;18.792;2024-03-08T10:35:11;1007.86;;;9.76;70.44
54144;BME280;40050;47.324;18.792;2024-03-08T10:37:13;1007.92;;;9.79;70.28
54144;BME280;40050;47.324;18.792;2024-03-08T10:39:22;1007.93;;;9.83;70.46
54144;BME280;40050;47.324;18.792;2024-03-08T10:41:24;1007.80;;;9.84;70.42
54144;BME280;40050;47.324;18.792;2024-03-08T10:43:24;1007.85;;;9.88;70.40
54144;BME280;40050;47.324;18.792;2024-03-08T10:45:35;1007.81;;;9.84;70.09
54144;BME280;40050;47.324;18.792;2024-03-08T10:47:38;1007.74;;;9.88;70.14
54144;BME280;40050;47.324;18.792;2024-03-08T10:49:51;1007.73;;;9.88;70.51